Morrill, Nebraska
Current Conditions -  °F | °C
As of 1:53 PM on Sunday 23 Nov 2014 (Local Time) from KTOR Reporting Station
Clear Clear  
Wind Chill: 31°   Ceiling: Unl
Heat Index: 40°   Visibility: 10mi
Dew Point: 12°   Wind: 18mph
Humidity: 32%   Direction: 320°NW
Pressure: 29.78"   Gusts: 30mph
Location:  41.96°N, 103.93°W
Report Text: KTOR 232053Z AUTO 32016G26KT 10SM CLR 04/M11 A2978 RMK AO2 PK WND 32033/2001 SLP092 T00441111 56009
Loading
Personal Weather Stations






























Interactive Weather Map New forecast layout! Learn more

10-Day Weather Forecast

Advertisements
Track Severe Weather on mobile